sensor_id;sensor_type;location;lat;lon;timestamp;P1;durP1;ratioP1;P2;durP2;ratioP2
815;SDS011;25928;51.062;13.752;2022-11-20T00:01:49;23.13;;;15.73;;
815;SDS011;25928;51.062;13.752;2022-11-20T00:04:14;25.20;;;15.47;;
815;SDS011;25928;51.062;13.752;2022-11-20T00:06:40;21.90;;;13.17;;
815;SDS011;25928;51.062;13.752;2022-11-20T00:09:06;25.60;;;13.97;;
815;SDS011;25928;51.062;13.752;2022-11-20T00:11:34;22.20;;;14.70;;
815;SDS011;25928;51.062;13.752;2022-11-20T00:14:01;21.07;;;14.40;;
815;SDS011;25928;51.062;13.752;2022-11-20T00:16:27;22.47;;;13.53;;
815;SDS011;25928;51.062;13.752;2022-11-20T00:18:55;29.07;;;15.80;;
815;SDS011;25928;51.062;13.752;2022-11-20T00:21:22;24.23;;;13.87;;
815;SDS011;25928;51.062;13.752;2022-11-20T00:23:50;23.10;;;12.97;;
815;SDS011;25928;51.062;13.752;2022-11-20T00:26:18;23.93;;;13.10;;
815;SDS011;25928;51.062;13.752;2022-11-20T00:28:55;23.37;;;13.00;;
815;SDS011;25928;51.062;13.752;2022-11-20T00:31:22;23.30;;;14.57;;
815;SDS011;25928;51.062;13.752;2022-11-20T00:33:48;20.33;;;14.37;;
815;SDS011;25928;51.062;13.752;2022-11-20T00:36:14;23.63;;;13.40;;
815;SDS011;25928;51.062;13.752;2022-11-20T00:38:42;24.10;;;14.20;;
815;SDS011;25928;51.062;13.752;2022-11-20T00:41:09;23.87;;;14.97;;
815;SDS011;25928;51.062;13.752;2022-11-20T00:43:36;20.80;;;12.93;;
815;SDS011;25928;51.062;13.752;2022-11-20T00:46:06;19.90;;;13.60;;
815;SDS011;25928;51.062;13.752;2022-11-20T00:48:34;26.57;;;14.40;;
815;SDS011;25928;51.062;13.752;2022-11-20T00:51:00;26.30;;;14.67;;
815;SDS011;25928;51.062;13.752;2022-11-20T00:53:26;26.43;;;13.67;;
815;SDS011;25928;51.062;13.752;2022-11-20T00:55:53;23.27;;;14.70;;
815;SDS011;25928;51.062;13.752;2022-11-20T00:58:19;20.67;;;13.30;;
815;SDS011;25928;51.062;13.752;2022-11-20T01:00:44;23.40;;;14.67;;
815;SDS011;25928;51.062;13.752;2022-11-20T01:03:10;19.87;;;12.73;;
815;SDS011;25928;51.062;13.752;2022-11-20T01:05:36;22.60;;;13.50;;
815;SDS011;25928;51.062;13.752;2022-11-20T01:08:02;28.20;;;15.23;;
815;SDS011;25928;51.062;13.752;2022-11-20T01:10:27;22.90;;;13.50;;
815;SDS011;25928;51.062;13.752;2022-11-20T01:12:54;24.03;;;13.50;;
815;SDS011;25928;51.062;13.752;2022-11-20T01:15:38;24.50;;;14.07;;
815;SDS011;25928;51.062;13.752;2022-11-20T01:18:04;23.20;;;13.57;;
815;SDS011;25928;51.062;13.752;2022-11-20T01:20:33;25.07;;;13.30;;
815;SDS011;25928;51.062;13.752;2022-11-20T01:23:00;23.97;;;13.90;;
815;SDS011;25928;51.062;13.752;2022-11-20T01:25:26;24.23;;;14.47;;
815;SDS011;25928;51.062;13.752;2022-11-20T01:27:52;24.70;;;14.27;;
815;SDS011;25928;51.062;13.752;2022-11-20T01:30:17;33.37;;;15.27;;
815;SDS011;25928;51.062;13.752;2022-11-20T01:32:43;24.17;;;13.83;;
815;SDS011;25928;51.062;13.752;2022-11-20T01:35:09;26.63;;;14.87;;
815;SDS011;25928;51.062;13.752;2022-11-20T01:37:35;31.10;;;15.67;;
815;SDS011;25928;51.062;13.752;2022-11-20T01:40:00;29.00;;;14.93;;
815;SDS011;25928;51.062;13.752;2022-11-20T01:42:26;24.40;;;14.43;;
815;SDS011;25928;51.062;13.752;2022-11-20T01:48:14;22.27;;;14.50;;
815;SDS011;25928;51.062;13.752;2022-11-20T01:50:40;25.87;;;14.43;;
815;SDS011;25928;51.062;13.752;2022-11-20T01:53:08;21.73;;;14.27;;
815;SDS011;25928;51.062;13.752;2022-11-20T01:55:39;24.67;;;14.87;;
815;SDS011;25928;51.062;13.752;2022-11-20T01:58:10;24.43;;;13.50;;
815;SDS011;25928;51.062;13.752;2022-11-20T02:00:36;20.77;;;13.40;;
815;SDS011;25928;51.062;13.752;2022-11-20T02:03:06;21.20;;;13.83;;
815;SDS011;25928;51.062;13.752;2022-11-20T02:05:38;27.50;;;13.97;;
815;SDS011;25928;51.062;13.752;2022-11-20T02:08:17;17.77;;;11.27;;
815;SDS011;25928;51.062;13.752;2022-11-20T02:10:44;22.90;;;13.50;;
815;SDS011;25928;51.062;13.752;2022-11-20T02:13:09;21.93;;;12.43;;
815;SDS011;25928;51.062;13.752;2022-11-20T02:15:54;16.53;;;11.13;;
815;SDS011;25928;51.062;13.752;2022-11-20T02:18:20;16.33;;;10.93;;
815;SDS011;25928;51.062;13.752;2022-11-20T02:20:48;20.60;;;12.07;;
815;SDS011;25928;51.062;13.752;2022-11-20T02:23:22;17.03;;;10.30;;
815;SDS011;25928;51.062;13.752;2022-11-20T02:25:50;21.63;;;11.57;;
815;SDS011;25928;51.062;13.752;2022-11-20T02:28:17;15.70;;;9.87;;
815;SDS011;25928;51.062;13.752;2022-11-20T02:30:43;20.90;;;12.13;;
815;SDS011;25928;51.062;13.752;2022-11-20T02:33:09;18.00;;;12.30;;
815;SDS011;25928;51.062;13.752;2022-11-20T02:38:01;20.30;;;10.83;;
815;SDS011;25928;51.062;13.752;2022-11-20T02:40:27;24.07;;;11.90;;
815;SDS011;25928;51.062;13.752;2022-11-20T02:42:54;19.67;;;13.10;;
815;SDS011;25928;51.062;13.752;2022-11-20T02:45:20;19.60;;;12.30;;
815;SDS011;25928;51.062;13.752;2022-11-20T02:47:47;22.13;;;13.67;;
815;SDS011;25928;51.062;13.752;2022-11-20T02:50:13;20.23;;;12.93;;
815;SDS011;25928;51.062;13.752;2022-11-20T02:52:39;20.07;;;12.30;;
815;SDS011;25928;51.062;13.752;2022-11-20T02:55:05;20.37;;;12.40;;
815;SDS011;25928;51.062;13.752;2022-11-20T02:57:31;19.90;;;12.87;;
815;SDS011;25928;51.062;13.752;2022-11-20T02:59:57;23.37;;;14.30;;
815;SDS011;25928;51.062;13.752;2022-11-20T03:02:22;23.33;;;12.10;;
815;SDS011;25928;51.062;13.752;2022-11-20T03:04:50;17.30;;;11.50;;
815;SDS011;25928;51.062;13.752;2022-11-20T03:07:16;21.63;;;12.37;;
815;SDS011;25928;51.062;13.752;2022-11-20T03:09:41;24.83;;;12.07;;
815;SDS011;25928;51.062;13.752;2022-11-20T03:12:07;21.30;;;12.00;;
815;SDS011;25928;51.062;13.752;2022-11-20T03:14:34;23.17;;;12.93;;
815;SDS011;25928;51.062;13.752;2022-11-20T03:16:59;21.90;;;13.77;;
815;SDS011;25928;51.062;13.752;2022-11-20T03:19:25;22.27;;;12.53;;
815;SDS011;25928;51.062;13.752;2022-11-20T03:21:51;22.07;;;12.60;;
815;SDS011;25928;51.062;13.752;2022-11-20T03:24:17;23.87;;;13.57;;
815;SDS011;25928;51.062;13.752;2022-11-20T03:26:43;22.77;;;13.67;;
815;SDS011;25928;51.062;13.752;2022-11-20T03:29:09;21.47;;;12.97;;
815;SDS011;25928;51.062;13.752;2022-11-20T03:31:36;17.33;;;11.67;;
815;SDS011;25928;51.062;13.752;2022-11-20T03:34:05;20.53;;;11.40;;
815;SDS011;25928;51.062;13.752;2022-11-20T03:36:31;21.20;;;11.37;;
815;SDS011;25928;51.062;13.752;2022-11-20T03:38:57;20.50;;;12.13;;
815;SDS011;25928;51.062;13.752;2022-11-20T03:41:27;20.90;;;11.60;;
815;SDS011;25928;51.062;13.752;2022-11-20T03:43:58;18.57;;;11.80;;
815;SDS011;25928;51.062;13.752;2022-11-20T03:46:25;23.60;;;13.33;;
815;SDS011;25928;51.062;13.752;2022-11-20T03:48:51;20.53;;;11.30;;
815;SDS011;25928;51.062;13.752;2022-11-20T03:51:19;16.30;;;10.67;;
815;SDS011;25928;51.062;13.752;2022-11-20T03:53:47;22.13;;;12.73;;
815;SDS011;25928;51.062;13.752;2022-11-20T03:56:14;16.60;;;10.50;;
815;SDS011;25928;51.062;13.752;2022-11-20T03:58:42;21.37;;;11.23;;
815;SDS011;25928;51.062;13.752;2022-11-20T04:01:09;17.53;;;10.10;;
815;SDS011;25928;51.062;13.752;2022-11-20T04:03:40;20.50;;;10.63;;
815;SDS011;25928;51.062;13.752;2022-11-20T04:06:07;18.27;;;9.87;;
815;SDS011;25928;51.062;13.752;2022-11-20T04:08:35;22.97;;;11.90;;
815;SDS011;25928;51.062;13.752;2022-11-20T04:11:12;15.73;;;10.80;;
815;SDS011;25928;51.062;13.752;2022-11-20T04:13:42;18.70;;;9.57;;
815;SDS011;25928;51.062;13.752;2022-11-20T04:16:11;18.73;;;10.47;;
815;SDS011;25928;51.062;13.752;2022-11-20T04:18:37;16.00;;;9.27;;
815;SDS011;25928;51.062;13.752;2022-11-20T04:21:03;14.80;;;9.27;;
815;SDS011;25928;51.062;13.752;2022-11-20T04:23:29;20.63;;;11.37;;
815;SDS011;25928;51.062;13.752;2022-11-20T04:26:00;16.30;;;10.57;;
815;SDS011;25928;51.062;13.752;2022-11-20T04:28:33;19.40;;;11.13;;
815;SDS011;25928;51.062;13.752;2022-11-20T04:31:15;19.20;;;11.10;;
815;SDS011;25928;51.062;13.752;2022-11-20T04:33:44;16.00;;;10.77;;
815;SDS011;25928;51.062;13.752;2022-11-20T04:36:10;18.40;;;11.40;;
815;SDS011;25928;51.062;13.752;2022-11-20T04:38:38;21.03;;;11.77;;
815;SDS011;25928;51.062;13.752;2022-11-20T04:41:05;19.13;;;11.53;;
815;SDS011;25928;51.062;13.752;2022-11-20T04:43:32;18.90;;;10.50;;
815;SDS011;25928;51.062;13.752;2022-11-20T04:45:59;18.40;;;10.77;;
815;SDS011;25928;51.062;13.752;2022-11-20T04:48:25;17.80;;;10.20;;
815;SDS011;25928;51.062;13.752;2022-11-20T04:50:53;18.83;;;11.60;;
815;SDS011;25928;51.062;13.752;2022-11-20T04:53:19;21.27;;;12.43;;
815;SDS011;25928;51.062;13.752;2022-11-20T04:55:45;21.63;;;11.47;;
815;SDS011;25928;51.062;13.752;2022-11-20T04:58:12;23.43;;;12.83;;
815;SDS011;25928;51.062;13.752;2022-11-20T05:00:38;19.03;;;12.60;;
815;SDS011;25928;51.062;13.752;2022-11-20T05:03:03;24.87;;;11.90;;
815;SDS011;25928;51.062;13.752;2022-11-20T05:05:29;22.03;;;12.10;;
815;SDS011;25928;51.062;13.752;2022-11-20T05:07:56;26.20;;;12.77;;
815;SDS011;25928;51.062;13.752;2022-11-20T05:10:22;20.43;;;11.77;;
815;SDS011;25928;51.062;13.752;2022-11-20T05:12:49;23.40;;;12.37;;
815;SDS011;25928;51.062;13.752;2022-11-20T05:15:15;21.43;;;12.60;;
815;SDS011;25928;51.062;13.752;2022-11-20T05:17:40;19.03;;;11.40;;
815;SDS011;25928;51.062;13.752;2022-11-20T05:20:06;23.67;;;11.60;;
815;SDS011;25928;51.062;13.752;2022-11-20T05:22:32;21.53;;;10.80;;
815;SDS011;25928;51.062;13.752;2022-11-20T05:24:58;19.43;;;12.23;;
815;SDS011;25928;51.062;13.752;2022-11-20T05:27:24;21.73;;;11.30;;
815;SDS011;25928;51.062;13.752;2022-11-20T05:29:49;19.80;;;11.33;;
815;SDS011;25928;51.062;13.752;2022-11-20T05:32:15;19.40;;;10.20;;
815;SDS011;25928;51.062;13.752;2022-11-20T05:34:41;20.93;;;11.13;;
815;SDS011;25928;51.062;13.752;2022-11-20T05:37:07;19.67;;;10.90;;
815;SDS011;25928;51.062;13.752;2022-11-20T05:39:32;21.00;;;13.37;;
815;SDS011;25928;51.062;13.752;2022-11-20T05:41:58;17.37;;;11.90;;
815;SDS011;25928;51.062;13.752;2022-11-20T05:44:43;22.30;;;12.23;;
815;SDS011;25928;51.062;13.752;2022-11-20T05:47:08;22.83;;;11.10;;
815;SDS011;25928;51.062;13.752;2022-11-20T05:49:34;23.07;;;11.97;;
815;SDS011;25928;51.062;13.752;2022-11-20T05:52:00;22.90;;;12.87;;
815;SDS011;25928;51.062;13.752;2022-11-20T05:54:26;19.03;;;11.47;;
815;SDS011;25928;51.062;13.752;2022-11-20T05:56:52;21.07;;;12.57;;
815;SDS011;25928;51.062;13.752;2022-11-20T05:59:18;17.70;;;10.27;;
815;SDS011;25928;51.062;13.752;2022-11-20T06:01:44;22.80;;;12.70;;
815;SDS011;25928;51.062;13.752;2022-11-20T06:04:10;20.10;;;11.97;;
815;SDS011;25928;51.062;13.752;2022-11-20T06:06:35;18.83;;;11.20;;
815;SDS011;25928;51.062;13.752;2022-11-20T06:09:01;19.90;;;11.07;;
815;SDS011;25928;51.062;13.752;2022-11-20T06:11:27;15.70;;;10.27;;
815;SDS011;25928;51.062;13.752;2022-11-20T06:13:53;16.60;;;9.90;;
815;SDS011;25928;51.062;13.752;2022-11-20T06:16:19;15.23;;;9.77;;
815;SDS011;25928;51.062;13.752;2022-11-20T06:18:45;13.90;;;10.10;;
815;SDS011;25928;51.062;13.752;2022-11-20T06:21:15;15.97;;;8.87;;
815;SDS011;25928;51.062;13.752;2022-11-20T06:23:42;16.50;;;9.70;;
815;SDS011;25928;51.062;13.752;2022-11-20T06:26:10;13.80;;;8.87;;
815;SDS011;25928;51.062;13.752;2022-11-20T06:28:37;22.00;;;10.17;;
815;SDS011;25928;51.062;13.752;2022-11-20T06:31:03;21.33;;;11.33;;
815;SDS011;25928;51.062;13.752;2022-11-20T06:33:30;20.03;;;11.20;;
815;SDS011;25928;51.062;13.752;2022-11-20T06:35:56;19.63;;;9.47;;
815;SDS011;25928;51.062;13.752;2022-11-20T06:38:23;17.43;;;11.17;;
815;SDS011;25928;51.062;13.752;2022-11-20T06:40:52;18.83;;;11.20;;
815;SDS011;25928;51.062;13.752;2022-11-20T06:43:18;19.90;;;10.30;;
815;SDS011;25928;51.062;13.752;2022-11-20T06:45:44;19.00;;;11.60;;
815;SDS011;25928;51.062;13.752;2022-11-20T06:48:10;15.60;;;10.37;;
815;SDS011;25928;51.062;13.752;2022-11-20T06:50:36;18.00;;;10.83;;
815;SDS011;25928;51.062;13.752;2022-11-20T06:53:02;17.00;;;9.47;;
815;SDS011;25928;51.062;13.752;2022-11-20T06:55:29;23.20;;;10.10;;
815;SDS011;25928;51.062;13.752;2022-11-20T06:57:56;18.33;;;10.43;;
815;SDS011;25928;51.062;13.752;2022-11-20T07:00:22;18.83;;;10.63;;
815;SDS011;25928;51.062;13.752;2022-11-20T07:02:47;21.30;;;10.77;;
815;SDS011;25928;51.062;13.752;2022-11-20T07:05:13;21.70;;;11.43;;
815;SDS011;25928;51.062;13.752;2022-11-20T07:07:39;16.47;;;9.97;;
815;SDS011;25928;51.062;13.752;2022-11-20T07:10:04;19.80;;;12.00;;
815;SDS011;25928;51.062;13.752;2022-11-20T07:12:31;17.40;;;11.63;;
815;SDS011;25928;51.062;13.752;2022-11-20T07:14:56;20.47;;;10.70;;
815;SDS011;25928;51.062;13.752;2022-11-20T07:17:22;23.53;;;11.10;;
815;SDS011;25928;51.062;13.752;2022-11-20T07:19:48;20.43;;;11.43;;
815;SDS011;25928;51.062;13.752;2022-11-20T07:22:14;22.47;;;12.50;;
815;SDS011;25928;51.062;13.752;2022-11-20T07:24:40;24.13;;;13.23;;
815;SDS011;25928;51.062;13.752;2022-11-20T07:27:06;20.30;;;11.70;;
815;SDS011;25928;51.062;13.752;2022-11-20T07:29:31;25.83;;;12.90;;
815;SDS011;25928;51.062;13.752;2022-11-20T07:31:57;23.07;;;12.87;;
815;SDS011;25928;51.062;13.752;2022-11-20T07:34:23;28.50;;;14.20;;
815;SDS011;25928;51.062;13.752;2022-11-20T07:36:48;21.70;;;13.70;;
815;SDS011;25928;51.062;13.752;2022-11-20T07:39:14;23.90;;;13.10;;
815;SDS011;25928;51.062;13.752;2022-11-20T07:41:40;23.77;;;13.40;;
815;SDS011;25928;51.062;13.752;2022-11-20T07:44:06;23.00;;;13.07;;
815;SDS011;25928;51.062;13.752;2022-11-20T07:46:31;21.53;;;13.67;;
815;SDS011;25928;51.062;13.752;2022-11-20T07:48:57;27.07;;;13.07;;
815;SDS011;25928;51.062;13.752;2022-11-20T07:51:23;23.37;;;13.20;;
815;SDS011;25928;51.062;13.752;2022-11-20T07:53:51;22.40;;;13.73;;
815;SDS011;25928;51.062;13.752;2022-11-20T07:56:18;26.17;;;14.40;;
815;SDS011;25928;51.062;13.752;2022-11-20T07:58:44;21.30;;;11.60;;
815;SDS011;25928;51.062;13.752;2022-11-20T08:01:10;32.40;;;15.73;;
815;SDS011;25928;51.062;13.752;2022-11-20T08:03:35;20.07;;;12.83;;
815;SDS011;25928;51.062;13.752;2022-11-20T08:06:04;28.13;;;14.40;;
815;SDS011;25928;51.062;13.752;2022-11-20T08:08:30;24.63;;;13.57;;
815;SDS011;25928;51.062;13.752;2022-11-20T08:10:56;26.27;;;15.53;;
815;SDS011;25928;51.062;13.752;2022-11-20T08:13:42;29.90;;;14.90;;
815;SDS011;25928;51.062;13.752;2022-11-20T08:16:27;28.43;;;13.57;;
815;SDS011;25928;51.062;13.752;2022-11-20T08:18:53;24.43;;;15.33;;
815;SDS011;25928;51.062;13.752;2022-11-20T08:21:18;27.30;;;15.80;;
815;SDS011;25928;51.062;13.752;2022-11-20T08:23:44;25.20;;;15.33;;
815;SDS011;25928;51.062;13.752;2022-11-20T08:26:10;31.20;;;16.53;;
815;SDS011;25928;51.062;13.752;2022-11-20T08:28:35;26.70;;;15.60;;
815;SDS011;25928;51.062;13.752;2022-11-20T08:31:02;33.37;;;17.57;;
815;SDS011;25928;51.062;13.752;2022-11-20T08:33:28;24.70;;;14.00;;
815;SDS011;25928;51.062;13.752;2022-11-20T08:35:58;31.63;;;17.70;;
815;SDS011;25928;51.062;13.752;2022-11-20T08:38:24;30.53;;;16.07;;
815;SDS011;25928;51.062;13.752;2022-11-20T08:40:50;31.70;;;16.63;;
815;SDS011;25928;51.062;13.752;2022-11-20T08:43:35;27.20;;;15.83;;
815;SDS011;25928;51.062;13.752;2022-11-20T08:46:00;28.53;;;16.20;;
815;SDS011;25928;51.062;13.752;2022-11-20T08:48:26;27.20;;;15.13;;
815;SDS011;25928;51.062;13.752;2022-11-20T08:50:51;32.50;;;19.50;;
815;SDS011;25928;51.062;13.752;2022-11-20T08:53:17;30.30;;;17.00;;
815;SDS011;25928;51.062;13.752;2022-11-20T08:55:43;26.17;;;16.20;;
815;SDS011;25928;51.062;13.752;2022-11-20T08:58:08;26.80;;;16.83;;
815;SDS011;25928;51.062;13.752;2022-11-20T09:00:34;32.00;;;17.33;;
815;SDS011;25928;51.062;13.752;2022-11-20T09:03:00;28.57;;;16.37;;
815;SDS011;25928;51.062;13.752;2022-11-20T09:05:26;29.47;;;15.53;;
815;SDS011;25928;51.062;13.752;2022-11-20T09:07:55;29.30;;;16.13;;
815;SDS011;25928;51.062;13.752;2022-11-20T09:10:21;30.93;;;17.97;;
815;SDS011;25928;51.062;13.752;2022-11-20T09:12:50;29.87;;;16.40;;
815;SDS011;25928;51.062;13.752;2022-11-20T09:15:16;26.70;;;16.73;;
815;SDS011;25928;51.062;13.752;2022-11-20T09:17:50;27.73;;;15.50;;
815;SDS011;25928;51.062;13.752;2022-11-20T09:20:26;24.43;;;16.00;;
815;SDS011;25928;51.062;13.752;2022-11-20T09:22:53;26.83;;;16.63;;
815;SDS011;25928;51.062;13.752;2022-11-20T09:25:20;23.50;;;14.70;;
815;SDS011;25928;51.062;13.752;2022-11-20T09:27:46;24.10;;;14.93;;
815;SDS011;25928;51.062;13.752;2022-11-20T09:30:12;26.00;;;16.10;;
815;SDS011;25928;51.062;13.752;2022-11-20T09:32:42;24.70;;;14.30;;
815;SDS011;25928;51.062;13.752;2022-11-20T09:35:08;22.70;;;14.57;;
815;SDS011;25928;51.062;13.752;2022-11-20T09:37:35;25.47;;;15.80;;
815;SDS011;25928;51.062;13.752;2022-11-20T09:40:00;21.17;;;13.47;;
815;SDS011;25928;51.062;13.752;2022-11-20T09:48:52;23.77;;;13.23;;
815;SDS011;25928;51.062;13.752;2022-11-20T09:54:18;22.33;;;14.23;;
815;SDS011;25928;51.062;13.752;2022-11-20T09:56:46;21.63;;;14.23;;
815;SDS011;25928;51.062;13.752;2022-11-20T10:04:52;21.37;;;13.70;;
815;SDS011;25928;51.062;13.752;2022-11-20T10:07:32;21.70;;;14.17;;
815;SDS011;25928;51.062;13.752;2022-11-20T10:10:31;22.07;;;14.33;;
815;SDS011;25928;51.062;13.752;2022-11-20T10:13:32;23.50;;;13.23;;
815;SDS011;25928;51.062;13.752;2022-11-20T10:21:33;21.87;;;14.20;;
815;SDS011;25928;51.062;13.752;2022-11-20T10:27:21;18.70;;;12.00;;
815;SDS011;25928;51.062;13.752;2022-11-20T10:32:35;19.23;;;10.97;;
815;SDS011;25928;51.062;13.752;2022-11-20T10:35:14;21.40;;;12.40;;
815;SDS011;25928;51.062;13.752;2022-11-20T10:37:57;19.07;;;10.60;;
815;SDS011;25928;51.062;13.752;2022-11-20T10:40:33;17.57;;;11.53;;
815;SDS011;25928;51.062;13.752;2022-11-20T10:43:19;15.60;;;10.30;;
815;SDS011;25928;51.062;13.752;2022-11-20T10:45:58;14.40;;;9.90;;
815;SDS011;25928;51.062;13.752;2022-11-20T10:48:28;18.77;;;9.77;;
815;SDS011;25928;51.062;13.752;2022-11-20T10:56:46;13.60;;;9.37;;
815;SDS011;25928;51.062;13.752;2022-11-20T11:02:22;14.30;;;9.50;;
815;SDS011;25928;51.062;13.752;2022-11-20T11:04:52;15.73;;;10.23;;
815;SDS011;25928;51.062;13.752;2022-11-20T11:09:48;14.23;;;9.43;;
815;SDS011;25928;51.062;13.752;2022-11-20T11:12:17;13.90;;;9.30;;
815;SDS011;25928;51.062;13.752;2022-11-20T11:17:46;15.03;;;9.30;;
815;SDS011;25928;51.062;13.752;2022-11-20T11:23:04;14.77;;;9.53;;
815;SDS011;25928;51.062;13.752;2022-11-20T11:28:02;13.07;;;8.90;;
815;SDS011;25928;51.062;13.752;2022-11-20T11:30:44;12.63;;;9.23;;
815;SDS011;25928;51.062;13.752;2022-11-20T11:33:11;14.23;;;10.17;;
815;SDS011;25928;51.062;13.752;2022-11-20T11:35:50;14.13;;;8.00;;
815;SDS011;25928;51.062;13.752;2022-11-20T11:38:28;12.03;;;9.07;;
815;SDS011;25928;51.062;13.752;2022-11-20T11:41:04;23.07;;;13.00;;
815;SDS011;25928;51.062;13.752;2022-11-20T11:43:32;13.20;;;7.77;;
815;SDS011;25928;51.062;13.752;2022-11-20T11:46:26;20.10;;;12.50;;
815;SDS011;25928;51.062;13.752;2022-11-20T11:51:59;8.93;;;6.33;;
815;SDS011;25928;51.062;13.752;2022-11-20T11:57:12;8.20;;;5.90;;
815;SDS011;25928;51.062;13.752;2022-11-20T12:02:38;11.77;;;8.33;;
815;SDS011;25928;51.062;13.752;2022-11-20T12:05:23;9.50;;;7.43;;
815;SDS011;25928;51.062;13.752;2022-11-20T12:10:20;12.50;;;8.77;;
815;SDS011;25928;51.062;13.752;2022-11-20T12:12:53;11.30;;;7.07;;
815;SDS011;25928;51.062;13.752;2022-11-20T12:15:26;11.40;;;6.83;;
815;SDS011;25928;51.062;13.752;2022-11-20T12:17:54;13.07;;;7.47;;
815;SDS011;25928;51.062;13.752;2022-11-20T12:20:21;9.83;;;6.93;;
815;SDS011;25928;51.062;13.752;2022-11-20T12:22:55;8.83;;;6.37;;
815;SDS011;25928;51.062;13.752;2022-11-20T12:25:42;11.83;;;8.50;;
815;SDS011;25928;51.062;13.752;2022-11-20T12:36:56;10.20;;;6.77;;
815;SDS011;25928;51.062;13.752;2022-11-20T12:43:39;11.93;;;6.97;;
815;SDS011;25928;51.062;13.752;2022-11-20T12:46:18;12.50;;;7.63;;
815;SDS011;25928;51.062;13.752;2022-11-20T12:49:09;10.80;;;6.47;;
815;SDS011;25928;51.062;13.752;2022-11-20T13:08:04;7.70;;;6.10;;
815;SDS011;25928;51.062;13.752;2022-11-20T13:10:43;9.90;;;7.67;;
815;SDS011;25928;51.062;13.752;2022-11-20T13:16:19;10.40;;;7.87;;
815;SDS011;25928;51.062;13.752;2022-11-20T13:19:12;10.90;;;7.57;;
815;SDS011;25928;51.062;13.752;2022-11-20T13:21:41;10.33;;;6.50;;
815;SDS011;25928;51.062;13.752;2022-11-20T13:24:29;9.17;;;6.80;;
815;SDS011;25928;51.062;13.752;2022-11-20T13:27:02;7.53;;;5.10;;
815;SDS011;25928;51.062;13.752;2022-11-20T13:29:45;9.07;;;5.50;;
815;SDS011;25928;51.062;13.752;2022-11-20T13:34:52;7.17;;;5.77;;
815;SDS011;25928;51.062;13.752;2022-11-20T13:37:31;6.73;;;5.03;;
815;SDS011;25928;51.062;13.752;2022-11-20T13:40:05;9.90;;;6.53;;
815;SDS011;25928;51.062;13.752;2022-11-20T13:42:44;7.00;;;5.03;;
815;SDS011;25928;51.062;13.752;2022-11-20T13:47:53;8.53;;;5.23;;
815;SDS011;25928;51.062;13.752;2022-11-20T13:50:21;10.10;;;6.07;;
815;SDS011;25928;51.062;13.752;2022-11-20T14:01:05;9.47;;;5.83;;
815;SDS011;25928;51.062;13.752;2022-11-20T14:03:35;10.90;;;6.97;;
815;SDS011;25928;51.062;13.752;2022-11-20T14:06:05;8.77;;;6.20;;
815;SDS011;25928;51.062;13.752;2022-11-20T14:08:40;8.17;;;6.37;;
815;SDS011;25928;51.062;13.752;2022-11-20T14:11:18;9.60;;;6.00;;
815;SDS011;25928;51.062;13.752;2022-11-20T14:14:13;8.73;;;6.07;;
815;SDS011;25928;51.062;13.752;2022-11-20T14:16:46;8.80;;;5.90;;
815;SDS011;25928;51.062;13.752;2022-11-20T14:21:53;8.17;;;6.33;;
815;SDS011;25928;51.062;13.752;2022-11-20T14:24:33;8.43;;;6.33;;
815;SDS011;25928;51.062;13.752;2022-11-20T14:26:58;9.27;;;6.20;;
815;SDS011;25928;51.062;13.752;2022-11-20T14:29:28;8.93;;;6.60;;
815;SDS011;25928;51.062;13.752;2022-11-20T14:32:02;10.97;;;7.17;;
815;SDS011;25928;51.062;13.752;2022-11-20T14:34:29;11.40;;;7.50;;
815;SDS011;25928;51.062;13.752;2022-11-20T14:37:01;10.43;;;6.83;;
815;SDS011;25928;51.062;13.752;2022-11-20T14:39:33;9.37;;;6.70;;
815;SDS011;25928;51.062;13.752;2022-11-20T14:42:00;8.83;;;6.67;;
815;SDS011;25928;51.062;13.752;2022-11-20T14:44:27;10.90;;;6.50;;
815;SDS011;25928;51.062;13.752;2022-11-20T14:46:56;11.17;;;6.93;;
815;SDS011;25928;51.062;13.752;2022-11-20T14:49:22;12.47;;;7.97;;
815;SDS011;25928;51.062;13.752;2022-11-20T14:51:58;12.80;;;7.60;;
815;SDS011;25928;51.062;13.752;2022-11-20T14:54:24;12.60;;;8.10;;
815;SDS011;25928;51.062;13.752;2022-11-20T14:56:55;11.10;;;7.30;;
815;SDS011;25928;51.062;13.752;2022-11-20T14:59:23;10.73;;;6.63;;
815;SDS011;25928;51.062;13.752;2022-11-20T15:02:03;11.53;;;7.47;;
815;SDS011;25928;51.062;13.752;2022-11-20T15:04:49;11.70;;;7.50;;
815;SDS011;25928;51.062;13.752;2022-11-20T15:07:31;12.10;;;7.50;;
815;SDS011;25928;51.062;13.752;2022-11-20T15:10:00;11.90;;;7.77;;
815;SDS011;25928;51.062;13.752;2022-11-20T15:12:27;11.40;;;8.70;;
815;SDS011;25928;51.062;13.752;2022-11-20T15:14:54;12.43;;;7.70;;
815;SDS011;25928;51.062;13.752;2022-11-20T15:17:20;11.60;;;7.70;;
815;SDS011;25928;51.062;13.752;2022-11-20T15:19:46;12.07;;;7.60;;
815;SDS011;25928;51.062;13.752;2022-11-20T15:22:12;14.40;;;7.47;;
815;SDS011;25928;51.062;13.752;2022-11-20T15:24:44;10.97;;;7.80;;
815;SDS011;25928;51.062;13.752;2022-11-20T15:27:10;9.97;;;7.40;;
815;SDS011;25928;51.062;13.752;2022-11-20T15:29:36;11.60;;;7.40;;
815;SDS011;25928;51.062;13.752;2022-11-20T15:32:01;12.57;;;7.97;;
815;SDS011;25928;51.062;13.752;2022-11-20T15:34:27;11.83;;;7.17;;
815;SDS011;25928;51.062;13.752;2022-11-20T15:36:53;14.43;;;7.93;;
815;SDS011;25928;51.062;13.752;2022-11-20T15:39:19;12.07;;;8.70;;
815;SDS011;25928;51.062;13.752;2022-11-20T15:41:45;18.40;;;12.00;;
815;SDS011;25928;51.062;13.752;2022-11-20T15:44:11;13.17;;;8.23;;
815;SDS011;25928;51.062;13.752;2022-11-20T15:46:37;15.83;;;9.90;;
815;SDS011;25928;51.062;13.752;2022-11-20T15:49:10;15.33;;;9.83;;
815;SDS011;25928;51.062;13.752;2022-11-20T15:51:38;10.57;;;7.80;;
815;SDS011;25928;51.062;13.752;2022-11-20T15:54:10;14.37;;;9.30;;
815;SDS011;25928;51.062;13.752;2022-11-20T15:56:37;13.97;;;9.00;;
815;SDS011;25928;51.062;13.752;2022-11-20T15:59:03;14.80;;;9.63;;
815;SDS011;25928;51.062;13.752;2022-11-20T16:01:29;15.43;;;9.47;;
815;SDS011;25928;51.062;13.752;2022-11-20T16:03:55;12.40;;;9.03;;
815;SDS011;25928;51.062;13.752;2022-11-20T16:06:21;13.60;;;8.27;;
815;SDS011;25928;51.062;13.752;2022-11-20T16:08:46;12.30;;;8.20;;
815;SDS011;25928;51.062;13.752;2022-11-20T16:11:13;13.90;;;9.10;;
815;SDS011;25928;51.062;13.752;2022-11-20T16:13:39;15.07;;;9.27;;
815;SDS011;25928;51.062;13.752;2022-11-20T16:16:28;14.00;;;8.93;;
815;SDS011;25928;51.062;13.752;2022-11-20T16:18:59;16.17;;;10.77;;
815;SDS011;25928;51.062;13.752;2022-11-20T16:21:25;14.73;;;9.30;;
815;SDS011;25928;51.062;13.752;2022-11-20T16:24:01;19.47;;;11.03;;
815;SDS011;25928;51.062;13.752;2022-11-20T16:26:28;15.87;;;9.50;;
815;SDS011;25928;51.062;13.752;2022-11-20T16:28:54;16.73;;;10.00;;
815;SDS011;25928;51.062;13.752;2022-11-20T16:31:20;12.37;;;9.23;;
815;SDS011;25928;51.062;13.752;2022-11-20T16:33:52;16.23;;;9.57;;
815;SDS011;25928;51.062;13.752;2022-11-20T16:36:23;15.40;;;10.90;;
815;SDS011;25928;51.062;13.752;2022-11-20T16:38:54;16.57;;;9.90;;
815;SDS011;25928;51.062;13.752;2022-11-20T16:41:20;19.73;;;11.00;;
815;SDS011;25928;51.062;13.752;2022-11-20T16:46:17;22.23;;;11.37;;